createdAt,value
2023-03-16T00:01:41.029Z,1.17
2023-03-16T00:04:09.029Z,1.16
2023-03-16T00:06:38.361Z,1.41
2023-03-16T00:09:06.360Z,1.39
2023-03-16T00:11:34.315Z,1.61
2023-03-16T00:14:04.186Z,1.72
2023-03-16T00:16:32.195Z,1.67
2023-03-16T00:19:00.644Z,1.64
2023-03-16T00:21:30.619Z,1.62
2023-03-16T00:24:00.062Z,1.57
2023-03-16T00:26:28.185Z,1.49
2023-03-16T00:28:56.140Z,1.57
2023-03-16T00:31:25.231Z,1.52
2023-03-16T00:33:53.474Z,1.48
2023-03-16T00:36:22.879Z,1.44
2023-03-16T00:38:51.340Z,1.40
2023-03-16T00:41:22.968Z,1.25
2023-03-16T00:43:51.838Z,1.16
2023-03-16T00:46:19.981Z,1.17
2023-03-16T00:48:48.975Z,1.02
2023-03-16T00:51:19.176Z,1.08
2023-03-16T00:53:48.398Z,1.15
2023-03-16T00:56:17.805Z,1.15
2023-03-16T00:58:47.656Z,1.03
2023-03-16T01:01:18.278Z,1.05
2023-03-16T01:03:47.632Z,0.96
2023-03-16T01:06:20.924Z,0.87
2023-03-16T01:08:48.874Z,0.87
2023-03-16T01:11:18.585Z,0.77
2023-03-16T01:13:49.522Z,0.72
2023-03-16T01:16:19.041Z,0.65
2023-03-16T01:18:47.812Z,0.78
2023-03-16T01:21:15.977Z,0.93
2023-03-16T01:23:44.521Z,0.91
2023-03-16T01:26:13.080Z,0.76
2023-03-16T01:28:40.959Z,0.70
2023-03-16T01:31:12.697Z,0.77
2023-03-16T01:33:41.207Z,0.74
2023-03-16T01:36:12.984Z,0.70
2023-03-16T01:38:41.259Z,0.72
2023-03-16T01:41:09.956Z,0.64
2023-03-16T01:43:40.459Z,0.71
2023-03-16T01:46:19.214Z,0.52
2023-03-16T01:48:56.176Z,0.53
2023-03-16T01:51:29.335Z,0.65
2023-03-16T01:54:00.358Z,0.62
2023-03-16T01:56:35.075Z,0.53
2023-03-16T01:59:07.054Z,0.48
2023-03-16T02:01:36.959Z,0.56
2023-03-16T02:04:15.106Z,0.39
2023-03-16T02:06:44.637Z,0.32
2023-03-16T02:09:13.295Z,0.46
2023-03-16T02:11:41.655Z,0.53
2023-03-16T02:14:12.092Z,0.56
2023-03-16T02:16:42.528Z,0.48
2023-03-16T02:19:15.182Z,0.38
2023-03-16T02:21:54.605Z,0.39
2023-03-16T02:24:22.581Z,0.41
2023-03-16T02:26:56.160Z,0.40
2023-03-16T02:29:54.189Z,0.61
2023-03-16T02:32:24.263Z,0.53
2023-03-16T02:34:52.187Z,0.45
2023-03-16T02:37:20.266Z,0.37
2023-03-16T02:39:48.178Z,0.19
2023-03-16T02:42:19.549Z,0.05
2023-03-16T02:44:52.117Z,0.05
2023-03-16T02:47:28.385Z,0.06
2023-03-16T02:49:56.256Z,-0.05
2023-03-16T02:52:24.149Z,-0.01
2023-03-16T02:54:52.010Z,0.00
2023-03-16T02:57:19.912Z,0.04
2023-03-16T02:59:47.875Z,-0.06
2023-03-16T03:02:17.187Z,-0.13
2023-03-16T03:04:46.337Z,-0.13
2023-03-16T03:07:14.628Z,-0.06
2023-03-16T03:09:43.287Z,-0.12
2023-03-16T03:12:11.804Z,-0.17
2023-03-16T03:14:40.627Z,-0.22
2023-03-16T03:17:10.100Z,-0.05
2023-03-16T03:19:39.372Z,-0.14
2023-03-16T03:22:07.442Z,-0.29
2023-03-16T03:24:36.307Z,-0.32
2023-03-16T03:27:05.863Z,-0.34
2023-03-16T03:29:35.397Z,-0.34
2023-03-16T03:32:03.501Z,-0.12
2023-03-16T03:34:32.133Z,-0.17
2023-03-16T03:37:01.498Z,-0.05
2023-03-16T03:39:29.450Z,-0.04
2023-03-16T03:41:57.370Z,-0.07
2023-03-16T03:44:27.048Z,-0.02
2023-03-16T03:46:55.042Z,-0.06
2023-03-16T03:49:23.000Z,-0.11
2023-03-16T03:51:51.409Z,0.09
2023-03-16T03:54:20.750Z,0.08
2023-03-16T03:56:48.643Z,0.01
2023-03-16T03:59:16.520Z,0.05
2023-03-16T04:01:44.944Z,-0.13
2023-03-16T04:04:12.852Z,-0.04
2023-03-16T04:06:41.753Z,-0.13
2023-03-16T04:09:10.032Z,0.03
2023-03-16T04:11:39.549Z,-0.14
2023-03-16T04:14:07.791Z,-0.02
2023-03-16T04:16:35.937Z,-0.03
2023-03-16T04:19:04.426Z,-0.16
2023-03-16T04:21:32.359Z,-0.35
2023-03-16T04:24:01.516Z,-0.32
2023-03-16T04:26:29.582Z,-0.21
2023-03-16T04:28:59.076Z,-0.07
2023-03-16T04:31:27.305Z,-0.20
2023-03-16T04:33:55.333Z,-0.30
2023-03-16T04:36:24.655Z,-0.23
2023-03-16T04:38:52.831Z,-0.09
2023-03-16T04:41:21.091Z,-0.22
2023-03-16T04:43:48.975Z,-0.16
2023-03-16T04:46:18.300Z,-0.08
2023-03-16T04:48:46.292Z,-0.10
2023-03-16T04:51:14.240Z,-0.13
2023-03-16T04:53:42.203Z,-0.25
2023-03-16T04:56:10.113Z,-0.17
2023-03-16T04:58:37.951Z,-0.21
2023-03-16T05:01:06.106Z,-0.17
2023-03-16T05:03:35.926Z,-0.28
2023-03-16T05:06:03.882Z,-0.24
2023-03-16T05:08:32.110Z,-0.19
2023-03-16T05:11:00.419Z,-0.08
2023-03-16T05:13:28.380Z,-0.15
2023-03-16T05:15:56.362Z,-0.30
2023-03-16T05:18:24.884Z,-0.47
2023-03-16T05:20:56.538Z,-0.59
2023-03-16T05:23:25.018Z,-0.43
2023-03-16T05:25:52.896Z,-0.29
2023-03-16T05:28:20.769Z,-0.35
2023-03-16T05:30:48.686Z,-0.29
2023-03-16T05:33:16.607Z,-0.21
2023-03-16T05:35:44.525Z,-0.36
2023-03-16T05:38:15.894Z,-0.50
2023-03-16T05:40:43.892Z,-0.28
2023-03-16T05:43:11.758Z,-0.22
2023-03-16T05:45:39.650Z,-0.34
2023-03-16T05:48:07.721Z,-0.37
2023-03-16T05:50:35.662Z,-0.49
2023-03-16T05:53:04.345Z,-0.56
2023-03-16T05:55:33.622Z,-0.65
2023-03-16T05:58:04.390Z,-0.55
2023-03-16T06:00:33.637Z,-0.48
2023-03-16T06:03:01.695Z,-0.54
2023-03-16T06:05:30.486Z,-0.28
2023-03-16T06:07:58.352Z,-0.39
2023-03-16T06:10:27.028Z,-0.48
2023-03-16T06:12:57.113Z,-0.26
2023-03-16T06:15:26.632Z,-0.01
2023-03-16T06:17:54.499Z,-0.08
2023-03-16T06:20:22.707Z,-0.11
2023-03-16T06:22:50.560Z,-0.07
2023-03-16T06:25:18.815Z,-0.08
2023-03-16T06:27:46.814Z,-0.01
2023-03-16T06:30:17.303Z,0.07
2023-03-16T06:32:46.387Z,0.12
2023-03-16T06:35:14.997Z,0.03
2023-03-16T06:37:44.023Z,-0.37
2023-03-16T06:40:13.468Z,0.04
2023-03-16T06:42:41.403Z,0.28
2023-03-16T06:45:11.196Z,0.15
2023-03-16T06:47:40.410Z,0.35
2023-03-16T06:50:09.158Z,0.29
2023-03-16T06:52:37.133Z,0.33
2023-03-16T06:55:05.612Z,0.22
2023-03-16T06:57:33.477Z,0.33
2023-03-16T07:00:03.535Z,0.43
2023-03-16T07:02:32.307Z,0.46
2023-03-16T07:05:01.581Z,0.58
2023-03-16T07:07:31.271Z,0.74
2023-03-16T07:09:59.153Z,1.04
2023-03-16T07:12:27.108Z,1.07
2023-03-16T07:14:54.995Z,0.89
2023-03-16T07:17:22.887Z,1.04
2023-03-16T07:19:50.847Z,1.00
2023-03-16T07:22:20.066Z,0.92
2023-03-16T07:24:51.912Z,0.94
2023-03-16T07:27:19.797Z,1.06
2023-03-16T07:29:47.656Z,1.26
2023-03-16T07:32:15.526Z,1.04
2023-03-16T07:34:44.558Z,1.15
2023-03-16T07:37:18.357Z,1.04
2023-03-16T07:39:52.569Z,1.26
2023-03-16T07:42:23.111Z,1.43
2023-03-16T07:44:52.133Z,1.60
2023-03-16T07:47:23.833Z,1.93
2023-03-16T07:49:56.152Z,2.05
2023-03-16T07:52:24.228Z,2.12
2023-03-16T07:54:53.552Z,2.14
2023-03-16T07:57:21.734Z,2.43
2023-03-16T07:59:49.678Z,2.61
2023-03-16T08:02:21.674Z,2.73
2023-03-16T08:04:49.663Z,2.70
2023-03-16T08:07:17.572Z,2.89
2023-03-16T08:09:46.144Z,2.94
2023-03-16T08:12:15.782Z,3.05
2023-03-16T08:14:45.507Z,3.23
2023-03-16T08:17:13.869Z,3.35
2023-03-16T08:19:42.783Z,3.25
2023-03-16T08:22:10.760Z,3.39
2023-03-16T08:24:39.370Z,3.70
2023-03-16T08:27:09.961Z,3.73
2023-03-16T08:29:40.888Z,3.92
2023-03-16T08:32:08.884Z,3.81
2023-03-16T08:34:36.974Z,3.94
2023-03-16T08:37:05.020Z,3.74
2023-03-16T08:39:33.609Z,3.76
2023-03-16T08:42:01.493Z,4.20
2023-03-16T08:44:29.481Z,4.39
2023-03-16T08:46:59.421Z,4.37
2023-03-16T08:49:27.362Z,4.44
2023-03-16T08:51:55.398Z,4.26
2023-03-16T08:54:23.803Z,4.56
2023-03-16T08:56:51.852Z,4.75
2023-03-16T08:59:29.429Z,4.88
2023-03-16T09:02:00.637Z,5.15
2023-03-16T09:04:30.128Z,4.97
2023-03-16T09:07:08.318Z,4.84
2023-03-16T09:09:37.673Z,5.35
2023-03-16T09:12:06.675Z,5.85
2023-03-16T09:14:35.424Z,5.76
2023-03-16T09:17:05.240Z,5.85
2023-03-16T09:19:50.086Z,5.67
2023-03-16T09:22:19.810Z,6.04
2023-03-16T09:24:48.545Z,5.80
2023-03-16T09:27:16.917Z,5.97
2023-03-16T09:29:45.553Z,6.09
2023-03-16T09:32:15.460Z,6.25
2023-03-16T09:34:43.430Z,6.41
2023-03-16T09:37:11.604Z,6.34
2023-03-16T09:39:39.766Z,6.68
2023-03-16T09:42:15.722Z,6.23
2023-03-16T09:44:55.440Z,6.30
2023-03-16T09:47:28.707Z,6.60
2023-03-16T09:50:00.100Z,7.01
2023-03-16T09:52:36.275Z,7.14
2023-03-16T09:55:12.070Z,6.82
2023-03-16T09:57:43.266Z,6.71
2023-03-16T10:00:18.480Z,6.74
2023-03-16T10:03:00.101Z,6.81
2023-03-16T10:05:28.779Z,6.86
2023-03-16T10:08:07.940Z,6.98
2023-03-16T10:10:59.795Z,6.92
2023-03-16T10:13:35.317Z,7.14
2023-03-16T10:16:09.547Z,7.65
2023-03-16T10:18:45.002Z,7.97
2023-03-16T10:21:15.342Z,7.80
2023-03-16T10:23:43.952Z,8.03
2023-03-16T10:26:16.097Z,7.94
2023-03-16T10:28:45.696Z,7.47
2023-03-16T10:31:14.793Z,7.80
2023-03-16T10:33:44.141Z,7.78
2023-03-16T10:36:17.172Z,7.72
2023-03-16T10:38:49.274Z,7.84
2023-03-16T10:41:28.212Z,7.94
2023-03-16T10:43:58.500Z,8.14
2023-03-16T10:46:28.444Z,8.12
2023-03-16T10:49:01.389Z,8.27
2023-03-16T10:51:32.001Z,8.39
2023-03-16T10:54:10.993Z,8.54
2023-03-16T10:56:40.382Z,8.74
2023-03-16T10:59:17.212Z,8.49
2023-03-16T11:01:50.218Z,8.82
2023-03-16T11:04:20.824Z,8.71
2023-03-16T11:06:53.901Z,8.81
2023-03-16T11:09:26.185Z,9.12
2023-03-16T11:11:54.098Z,9.40
2023-03-16T11:14:26.220Z,9.36
2023-03-16T11:17:02.344Z,9.43
2023-03-16T11:19:35.780Z,9.27
2023-03-16T11:22:08.385Z,9.02
2023-03-16T11:24:46.151Z,8.85
2023-03-16T11:27:23.099Z,9.35
2023-03-16T11:30:00.850Z,9.27
2023-03-16T11:32:32.272Z,9.34
2023-03-16T11:35:04.620Z,9.76
2023-03-16T11:37:46.277Z,9.63
2023-03-16T11:40:29.156Z,9.94
2023-03-16T11:43:07.140Z,10.06
2023-03-16T11:45:42.914Z,10.06
2023-03-16T11:48:43.999Z,9.91
2023-03-16T11:51:25.673Z,10.03
2023-03-16T11:54:04.134Z,10.07
2023-03-16T11:56:35.899Z,9.94
2023-03-16T11:59:40.873Z,10.02
2023-03-16T12:02:32.090Z,10.36
2023-03-16T12:05:22.336Z,10.44
2023-03-16T12:08:01.677Z,10.44
2023-03-16T12:10:33.105Z,10.42
2023-03-16T12:13:21.205Z,10.54
2023-03-16T12:15:53.507Z,10.53
2023-03-16T12:18:27.480Z,10.65
2023-03-16T12:20:59.892Z,10.57
2023-03-16T12:23:34.660Z,10.35
2023-03-16T12:26:03.784Z,10.54
2023-03-16T12:28:33.593Z,10.88
2023-03-16T12:31:12.211Z,10.76
2023-03-16T12:34:02.378Z,10.57
2023-03-16T12:37:10.234Z,11.04
2023-03-16T12:39:59.223Z,10.98
2023-03-16T12:42:43.718Z,11.07
2023-03-16T12:45:17.849Z,11.25
2023-03-16T12:47:53.362Z,11.10
2023-03-16T12:50:21.933Z,10.95
2023-03-16T12:52:52.114Z,11.24
2023-03-16T12:55:28.092Z,11.29
2023-03-16T12:58:03.056Z,11.65
2023-03-16T13:00:35.884Z,11.36
2023-03-16T13:03:05.241Z,11.55
2023-03-16T13:05:35.693Z,11.75
2023-03-16T13:08:10.660Z,11.62
2023-03-16T13:10:41.847Z,11.59
2023-03-16T13:13:13.124Z,11.53
2023-03-16T13:15:41.854Z,11.76
2023-03-16T13:18:25.468Z,11.88
2023-03-16T13:20:59.180Z,11.52
2023-03-16T13:23:30.227Z,11.66
2023-03-16T13:26:18.812Z,11.43
2023-03-16T13:28:54.083Z,11.70
2023-03-16T13:31:28.087Z,11.96
2023-03-16T13:34:00.429Z,12.42
2023-03-16T13:36:29.878Z,11.86
2023-03-16T13:39:05.209Z,11.70
2023-03-16T13:41:34.488Z,11.81
2023-03-16T13:44:02.965Z,11.67
2023-03-16T13:46:31.901Z,11.83
2023-03-16T13:49:00.845Z,11.98
2023-03-16T13:51:32.041Z,11.95
2023-03-16T13:54:00.100Z,11.96
2023-03-16T13:56:29.491Z,12.14
2023-03-16T13:59:01.197Z,12.34
2023-03-16T14:01:32.121Z,12.09
2023-03-16T14:04:08.680Z,12.46
2023-03-16T14:06:37.922Z,12.39
2023-03-16T14:09:08.172Z,12.49
2023-03-16T14:11:36.154Z,12.38
2023-03-16T14:14:16.059Z,12.65
2023-03-16T14:16:45.745Z,12.77
2023-03-16T14:19:20.402Z,12.88
2023-03-16T14:21:48.377Z,13.00
2023-03-16T14:24:25.433Z,12.85
2023-03-16T14:26:53.322Z,12.54
2023-03-16T14:29:26.597Z,12.59
2023-03-16T14:31:55.568Z,12.96
2023-03-16T14:34:30.069Z,13.13
2023-03-16T14:37:09.431Z,13.21
2023-03-16T14:39:37.578Z,13.38
2023-03-16T14:42:08.004Z,13.38
2023-03-16T14:44:40.873Z,13.62
2023-03-16T14:47:09.853Z,12.94
2023-03-16T14:49:41.521Z,12.93
2023-03-16T14:52:22.303Z,13.13
2023-03-16T14:54:52.052Z,12.99
2023-03-16T14:57:20.287Z,12.76
2023-03-16T14:59:49.884Z,12.84
2023-03-16T15:02:20.426Z,12.67
2023-03-16T15:04:49.824Z,12.46
2023-03-16T15:07:26.097Z,12.36
2023-03-16T15:09:56.049Z,12.37
2023-03-16T15:12:26.441Z,12.42
2023-03-16T15:15:13.698Z,12.37
2023-03-16T15:17:45.173Z,12.43
2023-03-16T15:20:15.870Z,12.48
2023-03-16T15:22:46.439Z,12.39
2023-03-16T15:25:31.056Z,12.24
2023-03-16T15:27:59.267Z,12.27
2023-03-16T15:30:30.802Z,12.15
2023-03-16T15:32:58.931Z,12.23
2023-03-16T15:35:28.040Z,12.28
2023-03-16T15:37:56.525Z,12.27
2023-03-16T15:40:27.389Z,12.23
2023-03-16T15:42:55.709Z,12.17
2023-03-16T15:45:25.480Z,12.22
2023-03-16T15:47:55.308Z,12.11
2023-03-16T15:50:25.843Z,12.12
2023-03-16T15:52:58.215Z,12.14
2023-03-16T15:55:33.181Z,12.14
2023-03-16T15:58:03.723Z,12.25
2023-03-16T16:00:35.079Z,12.33
2023-03-16T16:03:07.385Z,12.24
2023-03-16T16:05:36.282Z,12.46
2023-03-16T16:08:08.159Z,12.51
2023-03-16T16:10:39.706Z,12.49
2023-03-16T16:13:07.846Z,12.47
2023-03-16T16:15:37.719Z,12.46
2023-03-16T16:18:26.570Z,12.47
2023-03-16T16:20:56.377Z,12.36
2023-03-16T16:23:25.112Z,12.37
2023-03-16T16:25:54.470Z,12.36
2023-03-16T16:28:25.185Z,12.28
2023-03-16T16:30:53.157Z,12.17
2023-03-16T16:33:27.602Z,12.17
2023-03-16T16:35:57.474Z,12.03
2023-03-16T16:38:26.138Z,11.94
2023-03-16T16:40:55.237Z,11.92
2023-03-16T16:43:33.459Z,11.82
2023-03-16T16:46:03.426Z,11.72
2023-03-16T16:48:36.772Z,11.67
2023-03-16T16:51:07.061Z,11.52
2023-03-16T16:53:35.735Z,11.48
2023-03-16T16:56:04.959Z,11.44
2023-03-16T16:58:33.308Z,11.31
2023-03-16T17:01:02.036Z,11.17
2023-03-16T17:03:30.870Z,11.10
2023-03-16T17:06:00.292Z,10.94
2023-03-16T17:08:29.588Z,10.90
2023-03-16T17:10:58.527Z,10.79
2023-03-16T17:13:31.148Z,10.67
2023-03-16T17:16:00.242Z,10.59
2023-03-16T17:18:28.785Z,10.38
2023-03-16T17:20:58.034Z,10.37
2023-03-16T17:23:31.263Z,10.29
2023-03-16T17:26:01.857Z,10.18
2023-03-16T17:28:32.804Z,10.10
2023-03-16T17:31:00.880Z,10.06
2023-03-16T17:33:29.690Z,9.91
2023-03-16T17:35:57.695Z,9.88
2023-03-16T17:38:26.558Z,9.71
2023-03-16T17:40:56.611Z,9.69
2023-03-16T17:43:26.359Z,9.57
2023-03-16T17:45:54.593Z,9.54
2023-03-16T17:48:26.183Z,9.40
2023-03-16T17:50:55.404Z,9.26
2023-03-16T17:53:23.387Z,9.16
2023-03-16T17:55:51.389Z,8.96
2023-03-16T17:58:27.984Z,9.10
2023-03-16T18:00:56.491Z,8.91
2023-03-16T18:03:29.362Z,8.76
2023-03-16T18:05:58.605Z,8.68
2023-03-16T18:08:28.442Z,8.77
2023-03-16T18:10:58.757Z,8.68
2023-03-16T18:13:30.685Z,8.64
2023-03-16T18:15:59.473Z,8.54
2023-03-16T18:18:29.332Z,8.55
2023-03-16T18:21:00.449Z,8.42
2023-03-16T18:23:30.883Z,8.22
2023-03-16T18:26:02.288Z,8.23
2023-03-16T18:28:33.001Z,8.16
2023-03-16T18:31:03.006Z,8.02
2023-03-16T18:33:33.701Z,7.98
2023-03-16T18:36:04.939Z,8.05
2023-03-16T18:38:34.727Z,7.87
2023-03-16T18:41:11.758Z,7.84
2023-03-16T18:43:41.625Z,7.67
2023-03-16T18:46:25.254Z,7.57
2023-03-16T18:48:55.984Z,7.44
2023-03-16T18:51:25.387Z,7.35
2023-03-16T18:53:54.686Z,7.34
2023-03-16T18:56:24.819Z,7.14
2023-03-16T18:58:55.386Z,7.00
2023-03-16T19:01:25.938Z,6.98
2023-03-16T19:03:55.946Z,7.04
2023-03-16T19:06:29.769Z,7.00
2023-03-16T19:09:00.171Z,6.98
2023-03-16T19:11:28.478Z,6.86
2023-03-16T19:13:57.762Z,6.70
2023-03-16T19:16:25.765Z,6.63
2023-03-16T19:18:53.706Z,6.43
2023-03-16T19:21:23.672Z,6.46
2023-03-16T19:23:58.036Z,6.35
2023-03-16T19:26:26.327Z,6.45
2023-03-16T19:28:54.463Z,6.30
2023-03-16T19:31:28.116Z,6.16
2023-03-16T19:33:57.057Z,6.00
2023-03-16T19:36:27.217Z,6.04
2023-03-16T19:38:55.285Z,6.17
2023-03-16T19:41:26.979Z,6.08
2023-03-16T19:43:57.859Z,5.96
2023-03-16T19:46:28.397Z,5.95
2023-03-16T19:48:57.283Z,5.88
2023-03-16T19:51:29.032Z,5.77
2023-03-16T19:53:56.996Z,5.56
2023-03-16T19:56:26.847Z,5.73
2023-03-16T19:58:55.750Z,5.64
2023-03-16T20:01:32.421Z,5.63
2023-03-16T20:04:01.595Z,5.63
2023-03-16T20:06:29.593Z,5.49
2023-03-16T20:08:57.490Z,5.48
2023-03-16T20:11:29.833Z,5.55
2023-03-16T20:13:59.202Z,5.50
2023-03-16T20:16:31.159Z,5.47
2023-03-16T20:19:00.749Z,5.29
2023-03-16T20:21:28.896Z,5.18
2023-03-16T20:23:57.253Z,4.99
2023-03-16T20:26:29.118Z,4.94
2023-03-16T20:28:57.441Z,4.92
2023-03-16T20:31:29.760Z,4.59
2023-03-16T20:33:57.724Z,4.93
2023-03-16T20:36:26.470Z,5.12
2023-03-16T20:38:54.471Z,4.94
2023-03-16T20:41:26.749Z,5.27
2023-03-16T20:43:55.768Z,5.38
2023-03-16T20:46:26.315Z,5.34
2023-03-16T20:48:55.853Z,5.29
2023-03-16T20:51:24.684Z,5.11
2023-03-16T20:53:53.184Z,5.18
2023-03-16T20:56:25.882Z,5.10
2023-03-16T20:58:56.120Z,4.86
2023-03-16T21:01:25.142Z,4.87
2023-03-16T21:03:56.986Z,4.99
2023-03-16T21:06:27.654Z,5.18
2023-03-16T21:08:57.434Z,5.13
2023-03-16T21:11:28.679Z,4.85
2023-03-16T21:13:57.382Z,4.66
2023-03-16T21:16:25.472Z,4.47
2023-03-16T21:18:55.110Z,4.23
2023-03-16T21:21:24.213Z,4.25
2023-03-16T21:23:52.164Z,4.20
2023-03-16T21:26:22.982Z,4.04
2023-03-16T21:28:57.222Z,3.98
2023-03-16T21:31:26.528Z,3.89
2023-03-16T21:33:56.751Z,4.07
2023-03-16T21:36:26.630Z,3.84
2023-03-16T21:38:58.018Z,3.76
2023-03-16T21:41:25.988Z,3.97
2023-03-16T21:43:54.602Z,3.96
2023-03-16T21:46:25.556Z,3.89
2023-03-16T21:48:56.853Z,3.70
2023-03-16T21:51:30.282Z,3.72
2023-03-16T21:53:58.532Z,3.70
2023-03-16T21:56:28.354Z,3.60
2023-03-16T21:58:56.384Z,3.64
2023-03-16T22:01:27.743Z,3.47
2023-03-16T22:04:01.185Z,3.83
2023-03-16T22:06:29.869Z,3.81
2023-03-16T22:08:58.642Z,3.50
2023-03-16T22:11:28.396Z,3.49
2023-03-16T22:13:57.742Z,3.52
2023-03-16T22:16:28.102Z,3.50
2023-03-16T22:18:58.965Z,3.33
2023-03-16T22:21:32.713Z,3.26
2023-03-16T22:24:05.910Z,3.31
2023-03-16T22:26:35.138Z,3.27
2023-03-16T22:29:03.368Z,3.03
2023-03-16T22:31:35.041Z,3.19
2023-03-16T22:34:05.033Z,3.40
2023-03-16T22:36:34.470Z,3.10
2023-03-16T22:39:05.513Z,2.87
2023-03-16T22:41:33.600Z,3.16
2023-03-16T22:44:02.226Z,2.99
2023-03-16T22:46:31.041Z,3.08
2023-03-16T22:48:59.016Z,2.89
2023-03-16T22:51:33.128Z,2.71
2023-03-16T22:54:05.315Z,2.67
2023-03-16T22:56:34.970Z,2.64
2023-03-16T22:59:05.922Z,2.52
2023-03-16T23:01:36.032Z,2.49
2023-03-16T23:04:39.951Z,2.77
2023-03-16T23:07:12.574Z,2.71
2023-03-16T23:09:41.457Z,2.36
2023-03-16T23:12:15.614Z,2.42
2023-03-16T23:14:43.597Z,2.45
2023-03-16T23:17:17.991Z,2.34
2023-03-16T23:19:46.712Z,2.15
2023-03-16T23:22:17.971Z,2.28
2023-03-16T23:24:46.485Z,2.34
2023-03-16T23:27:18.658Z,2.36
2023-03-16T23:29:47.235Z,2.20
2023-03-16T23:32:16.917Z,2.22
2023-03-16T23:34:45.216Z,2.24
2023-03-16T23:37:13.500Z,2.45
2023-03-16T23:39:44.007Z,2.44
2023-03-16T23:42:12.745Z,2.28
2023-03-16T23:44:41.203Z,2.39
2023-03-16T23:47:12.155Z,2.37
2023-03-16T23:49:42.329Z,2.27
2023-03-16T23:52:12.267Z,2.44
2023-03-16T23:54:41.235Z,2.24
2023-03-16T23:57:11.175Z,2.16
2023-03-16T23:59:39.551Z,2.21
